»·PEaware :: N505GH S43-CYXX

N505GH :: S43-CYXX

FLIGHT INFORMATION

Flight Status: Arrived
Operator: Privately registered:
United States
More flights under this callsign
Pilot: Gabor H. (24209)
Aircraft: Unknown
(A5)
More flights by this aircraft type
Origin: S43 Harvey
United States
Destination: CYXX Abbotsford
Canada
More flights between these airports :: More routes between these airports
Route: DCT
File this flight plan on PilotEdge
Remarks:
Altitude:
(Current/Filed)
4,500ft
Speed:
(Current/Filed)
140kts
Departed: 13-Aug-19 09:57 AM
Arrived: 13-Aug-19 10:33 AM
Distance/Time
Traveled:
68nm/0:36
Distance/Time
To Go:
Arrived

Flight Plot

Page will automatically refresh every two minutes.

Flight plan parsing failed; only flown route is shown


Map Options




Map Legend


Flown Route
Filed Route
Departure Airport
Arrival Airport
Navaid (VOR, NDB)
Fix

Horizontal Profiles

Position Reports

Time Latitude Longitude Heading Altitude Ground
Speed
13-Aug-19 09:41 47.907198 -122.101025 20 19ft 0kts
13-Aug-19 09:42 47.907198 -122.101025 20 19ft 0kts
13-Aug-19 09:43 47.907198 -122.101025 20 19ft 0kts
13-Aug-19 09:44 47.907198 -122.101025 20 19ft 0kts
13-Aug-19 09:45 47.907198 -122.101025 20 19ft 0kts
13-Aug-19 09:46 47.907198 -122.101025 20 19ft 0kts
13-Aug-19 09:47 47.907198 -122.101025 20 19ft 0kts
13-Aug-19 09:48 47.907198 -122.101025 20 19ft 0kts
13-Aug-19 09:49 47.907198 -122.101025 20 19ft 0kts
13-Aug-19 09:50 47.907198 -122.101025 20 19ft 0kts
13-Aug-19 09:51 47.907198 -122.101025 20 19ft 0kts
13-Aug-19 09:52 47.907198 -122.101025 20 19ft 0kts
13-Aug-19 09:53 47.907199 -122.101025 20 19ft 0kts
13-Aug-19 09:54 47.906675 -122.101206 285 19ft 12kts
13-Aug-19 09:55 47.907947 -122.103028 330 19ft 7kts
13-Aug-19 09:56 47.901411 -122.100983 164 270ft 79kts
13-Aug-19 09:57 47.903255 -122.118501 345 1522ft 94kts
13-Aug-19 09:58 47.931368 -122.127367 350 2381ft 107kts
13-Aug-19 09:59 47.960841 -122.135134 350 3177ft 106kts
13-Aug-19 10:00 47.989740 -122.142710 350 3961ft 104kts
13-Aug-19 10:01 48.018908 -122.151332 348 4518ft 117kts
13-Aug-19 10:02 48.053076 -122.164465 345 4499ft 129kts
13-Aug-19 10:03 48.087029 -122.177849 345 4494ft 129kts
13-Aug-19 10:04 48.121953 -122.191321 345 4491ft 129kts
13-Aug-19 10:05 48.156751 -122.205518 341 4491ft 129kts
13-Aug-19 10:06 48.190738 -122.223594 341 4491ft 129kts
13-Aug-19 10:07 48.225339 -122.240117 342 4496ft 132kts
13-Aug-19 10:08 48.260737 -122.256131 342 4510ft 141kts
13-Aug-19 10:09 48.299765 -122.271310 345 4460ft 143kts
13-Aug-19 10:10 48.337813 -122.285307 345 4478ft 141kts
13-Aug-19 10:11 48.376613 -122.295553 350 4469ft 142kts
13-Aug-19 10:12 48.414798 -122.305351 349 4487ft 139kts
13-Aug-19 10:13 48.454091 -122.315677 349 4471ft 144kts
13-Aug-19 10:14 48.492496 -122.309175 22 4497ft 140kts
13-Aug-19 10:15 48.529134 -122.285121 23 4475ft 145kts
13-Aug-19 10:16 48.566240 -122.261817 20 4465ft 144kts
13-Aug-19 10:17 48.602333 -122.241206 20 4490ft 137kts
13-Aug-19 10:18 48.636606 -122.221622 20 4511ft 130kts
13-Aug-19 10:19 48.671816 -122.207491 9 4509ft 132kts
13-Aug-19 10:20 48.708225 -122.204616 1 4509ft 130kts
13-Aug-19 10:21 48.747505 -122.202568 1 4469ft 145kts
13-Aug-19 10:22 48.788397 -122.204960 338 4079ft 152kts
13-Aug-19 10:23 48.821971 -122.239118 316 3403ft 140kts
13-Aug-19 10:24 48.848457 -122.277439 315 2683ft 127kts
13-Aug-19 10:25 48.872251 -122.312049 315 2347ft 108kts
13-Aug-19 10:26 48.901100 -122.322921 355 1678ft 111kts
13-Aug-19 10:27 48.929939 -122.325842 355 1488ft 95kts
13-Aug-19 10:28 48.955962 -122.328398 355 1497ft 93kts
13-Aug-19 10:29 48.984326 -122.327841 4 1041ft 103kts
13-Aug-19 10:30 49.008858 -122.327160 359 916ft 72kts
13-Aug-19 10:31 49.021134 -122.339592 267 528ft 66kts
13-Aug-19 10:32 49.020177 -122.356932 273 192ft 11kts
13-Aug-19 10:33 49.023495 -122.360807 326 192ft 17kts
13-Aug-19 10:34 49.026131 -122.362528 326 192ft 0kts
13-Aug-19 10:35 49.026131 -122.362528 326 192ft 0kts
13-Aug-19 10:36 49.026131 -122.362528 326 192ft 0kts
13-Aug-19 10:37 49.026131 -122.362528 326 192ft 0kts
13-Aug-19 10:38 49.026131 -122.362528 326 192ft 0kts
13-Aug-19 10:39 49.026131 -122.362528 326 192ft 0kts

Navigation Log

Ident Type
Flight plan parsing failed, navigation log unavailable